createdAt,value
2019-02-23T00:00:52.177Z,77
2019-02-23T00:01:52.228Z,78
2019-02-23T00:02:52.300Z,77
2019-02-23T00:03:52.336Z,77
2019-02-23T00:04:52.355Z,78
2019-02-23T00:05:52.449Z,78
2019-02-23T00:06:52.466Z,78
2019-02-23T00:07:52.502Z,78
2019-02-23T00:08:52.568Z,78
2019-02-23T00:09:52.623Z,78
2019-02-23T00:10:52.662Z,77
2019-02-23T00:11:52.721Z,76
2019-02-23T00:12:52.730Z,77
2019-02-23T00:13:53.225Z,77
2019-02-23T00:14:52.792Z,77
2019-02-23T00:15:52.837Z,77
2019-02-23T00:16:52.852Z,77
2019-02-23T00:17:52.910Z,77
2019-02-23T00:18:52.932Z,77
2019-02-23T00:19:52.965Z,77
2019-02-23T00:20:52.990Z,77
2019-02-23T00:21:53.029Z,77
2019-02-23T00:22:53.060Z,77
2019-02-23T00:23:53.162Z,77
2019-02-23T00:24:53.188Z,77
2019-02-23T00:25:54.204Z,77
2019-02-23T00:26:53.254Z,77
2019-02-23T00:27:53.242Z,78
2019-02-23T00:28:53.325Z,78
2019-02-23T00:29:53.298Z,78
2019-02-23T00:30:53.350Z,78
2019-02-23T00:31:53.380Z,78
2019-02-23T00:32:53.414Z,78
2019-02-23T00:33:53.432Z,78
2019-02-23T00:34:53.494Z,78
2019-02-23T00:35:53.584Z,78
2019-02-23T00:36:53.554Z,78
2019-02-23T00:37:53.596Z,78
2019-02-23T00:38:53.597Z,78
2019-02-23T00:39:53.624Z,78
2019-02-23T00:40:53.675Z,79
2019-02-23T00:41:53.687Z,79
2019-02-23T00:42:53.680Z,79
2019-02-23T00:43:53.713Z,79
2019-02-23T00:44:53.729Z,79
2019-02-23T00:45:53.857Z,79
2019-02-23T00:46:53.815Z,78
2019-02-23T00:47:53.848Z,78
2019-02-23T00:48:53.881Z,78
2019-02-23T00:49:53.930Z,78
2019-02-23T00:50:53.913Z,78
2019-02-23T00:51:53.937Z,78
2019-02-23T00:52:53.968Z,78
2019-02-23T00:53:53.969Z,78
2019-02-23T00:54:54.002Z,78
2019-02-23T00:55:54.005Z,78
2019-02-23T00:56:54.018Z,78
2019-02-23T00:57:54.080Z,78
2019-02-23T00:58:54.068Z,78
2019-02-23T00:59:54.107Z,78
2019-02-23T01:00:54.117Z,78
2019-02-23T01:01:54.143Z,78
2019-02-23T01:02:54.163Z,78
2019-02-23T01:03:54.133Z,78
2019-02-23T01:04:54.149Z,79
2019-02-23T01:05:54.163Z,79
2019-02-23T01:06:54.210Z,79
2019-02-23T01:07:54.188Z,79
2019-02-23T01:08:54.203Z,79
2019-02-23T01:09:54.186Z,79
2019-02-23T01:10:57.910Z,79
2019-02-23T01:11:54.208Z,79
2019-02-23T01:12:54.217Z,79
2019-02-23T01:13:54.207Z,79
2019-02-23T01:14:54.251Z,79
2019-02-23T01:15:54.334Z,79
2019-02-23T01:16:54.387Z,80
2019-02-23T01:17:54.496Z,80
2019-02-23T01:18:54.483Z,80
2019-02-23T01:19:54.485Z,80
2019-02-23T01:20:54.581Z,80
2019-02-23T01:21:54.669Z,80
2019-02-23T01:22:54.780Z,80
2019-02-23T01:23:54.703Z,80
2019-02-23T01:24:54.819Z,80
2019-02-23T01:25:54.823Z,79
2019-02-23T01:26:54.927Z,79
2019-02-23T01:27:54.970Z,79
2019-02-23T01:28:54.966Z,79
2019-02-23T01:29:55.032Z,78
2019-02-23T01:30:55.084Z,78
2019-02-23T01:31:55.159Z,78
2019-02-23T01:32:55.230Z,78
2019-02-23T01:33:55.282Z,78
2019-02-23T01:34:55.320Z,78
2019-02-23T01:35:55.407Z,77
2019-02-23T01:36:55.469Z,77
2019-02-23T01:37:55.519Z,77
2019-02-23T01:38:55.544Z,77
2019-02-23T01:39:55.623Z,78
2019-02-23T01:40:55.609Z,78
2019-02-23T01:41:55.646Z,78
2019-02-23T01:42:55.676Z,78
2019-02-23T01:43:55.718Z,78
2019-02-23T01:44:55.732Z,78
2019-02-23T01:45:55.782Z,78
2019-02-23T01:46:55.833Z,78
2019-02-23T01:47:55.883Z,79
2019-02-23T01:48:55.880Z,79
2019-02-23T01:49:58.708Z,79
2019-02-23T01:50:56.001Z,79
2019-02-23T01:51:56.035Z,79
2019-02-23T01:52:56.077Z,79
2019-02-23T01:53:56.101Z,79
2019-02-23T01:54:56.155Z,80
2019-02-23T01:55:56.265Z,80
2019-02-23T01:56:56.259Z,80
2019-02-23T01:57:56.280Z,80
2019-02-23T01:58:56.279Z,80
2019-02-23T01:59:56.364Z,80
2019-02-23T02:00:56.407Z,80
2019-02-23T02:01:56.369Z,80
2019-02-23T02:02:56.427Z,80
2019-02-23T02:03:56.489Z,79
2019-02-23T02:04:56.571Z,79
2019-02-23T02:05:56.567Z,79
2019-02-23T02:06:56.700Z,79
2019-02-23T02:07:56.669Z,79
2019-02-23T02:08:56.731Z,78
2019-02-23T02:09:56.736Z,79
2019-02-23T02:10:56.829Z,79
2019-02-23T02:11:56.807Z,79
2019-02-23T02:12:56.841Z,79
2019-02-23T02:13:56.851Z,78
2019-02-23T02:14:56.910Z,78
2019-02-23T02:15:56.864Z,78
2019-02-23T02:16:56.910Z,78
2019-02-23T02:17:56.975Z,78
2019-02-23T02:18:56.974Z,78
2019-02-23T02:19:57.023Z,78
2019-02-23T02:20:57.063Z,79
2019-02-23T02:21:57.110Z,79
2019-02-23T02:22:57.103Z,79
2019-02-23T02:23:57.123Z,80
2019-02-23T02:24:57.134Z,80
2019-02-23T02:25:57.190Z,80
2019-02-23T02:26:57.200Z,80
2019-02-23T02:27:57.213Z,80
2019-02-23T02:28:57.334Z,80
2019-02-23T02:29:57.287Z,80
2019-02-23T02:30:57.319Z,80
2019-02-23T02:31:57.359Z,80
2019-02-23T02:32:57.363Z,80
2019-02-23T02:33:57.416Z,80
2019-02-23T02:34:57.454Z,80
2019-02-23T02:35:57.424Z,81
2019-02-23T02:36:57.445Z,81
2019-02-23T02:37:57.446Z,81
2019-02-23T02:38:57.564Z,81
2019-02-23T02:39:57.496Z,81
2019-02-23T02:40:57.492Z,81
2019-02-23T02:41:57.539Z,81
2019-02-23T02:42:57.530Z,82
2019-02-23T02:43:57.582Z,82
2019-02-23T02:44:57.575Z,82
2019-02-23T02:45:57.587Z,82
2019-02-23T02:46:57.630Z,82
2019-02-23T02:47:57.616Z,83
2019-02-23T02:49:13.315Z,83
2019-02-23T02:49:57.607Z,83
2019-02-23T02:50:57.664Z,83
2019-02-23T02:51:57.653Z,83
2019-02-23T02:52:57.663Z,83
2019-02-23T02:53:57.678Z,82
2019-02-23T02:54:57.672Z,83
2019-02-23T02:55:57.749Z,83
2019-02-23T02:56:57.694Z,83
2019-02-23T02:57:57.703Z,83
2019-02-23T02:58:57.712Z,83
2019-02-23T02:59:57.659Z,83
2019-02-23T03:00:57.751Z,83
2019-02-23T03:01:58.866Z,83
2019-02-23T03:02:57.916Z,83
2019-02-23T03:03:57.908Z,83
2019-02-23T03:04:58.051Z,82
2019-02-23T03:05:58.007Z,82
2019-02-23T03:06:58.039Z,82
2019-02-23T03:07:58.099Z,82
2019-02-23T03:08:58.191Z,81
2019-02-23T03:09:58.212Z,81
2019-02-23T03:10:58.309Z,81
2019-02-23T03:11:58.315Z,81
2019-02-23T03:12:58.449Z,81
2019-02-23T03:13:58.458Z,81
2019-02-23T03:14:58.543Z,81
2019-02-23T03:15:58.585Z,81
2019-02-23T03:16:58.637Z,81
2019-02-23T03:17:58.712Z,81
2019-02-23T03:18:58.772Z,81
2019-02-23T03:19:58.828Z,81
2019-02-23T03:20:58.870Z,81
2019-02-23T03:21:58.925Z,81
2019-02-23T03:22:59.006Z,81
2019-02-23T03:23:59.039Z,81
2019-02-23T03:24:59.193Z,82
2019-02-23T03:25:59.149Z,82
2019-02-23T03:26:59.744Z,82
2019-02-23T03:27:59.299Z,82
2019-02-23T03:28:59.340Z,82
2019-02-23T03:29:59.386Z,82
2019-02-23T03:30:59.435Z,82
2019-02-23T03:31:59.518Z,82
2019-02-23T03:32:59.567Z,82
2019-02-23T03:33:59.711Z,82
2019-02-23T03:34:59.670Z,82
2019-02-23T03:35:59.679Z,82
2019-02-23T03:36:59.758Z,82
2019-02-23T03:37:59.833Z,82
2019-02-23T03:38:59.865Z,82
2019-02-23T03:39:59.920Z,82
2019-02-23T03:40:59.945Z,82
2019-02-23T03:42:00.021Z,81
2019-02-23T03:42:59.998Z,81
2019-02-23T03:44:00.039Z,81
2019-02-23T03:45:00.272Z,81
2019-02-23T03:46:00.206Z,81
2019-02-23T03:47:00.161Z,81
2019-02-23T03:48:00.207Z,80
2019-02-23T03:49:00.263Z,80
2019-02-23T03:50:02.585Z,80
2019-02-23T03:51:00.361Z,80
2019-02-23T03:52:00.393Z,80
2019-02-23T03:53:00.460Z,80
2019-02-23T03:54:00.451Z,80
2019-02-23T03:55:00.493Z,79
2019-02-23T03:56:00.552Z,79
2019-02-23T03:57:00.562Z,80
2019-02-23T03:58:00.591Z,80
2019-02-23T03:59:00.608Z,80
2019-02-23T04:00:00.649Z,80
2019-02-23T04:01:00.794Z,80
2019-02-23T04:02:00.706Z,80
2019-02-23T04:03:00.758Z,80
2019-02-23T04:04:00.765Z,81
2019-02-23T04:05:00.787Z,81
2019-02-23T04:06:00.795Z,80
2019-02-23T04:07:00.823Z,80
2019-02-23T04:08:00.851Z,80
2019-02-23T04:09:02.788Z,80
2019-02-23T04:10:00.913Z,79
2019-02-23T04:11:00.952Z,79
2019-02-23T04:12:00.998Z,79
2019-02-23T04:13:01.035Z,79
2019-02-23T04:14:01.072Z,79
2019-02-23T04:15:01.060Z,78
2019-02-23T04:16:01.196Z,78
2019-02-23T04:17:01.101Z,78
2019-02-23T04:18:01.170Z,78
2019-02-23T04:19:01.154Z,77
2019-02-23T04:20:01.190Z,78
2019-02-23T04:21:02.190Z,78
2019-02-23T04:22:01.247Z,79
2019-02-23T04:23:01.345Z,79
2019-02-23T04:24:01.349Z,79
2019-02-23T04:25:01.362Z,79
2019-02-23T04:26:01.355Z,79
2019-02-23T04:27:01.374Z,79
2019-02-23T04:28:01.370Z,79
2019-02-23T04:29:01.398Z,80
2019-02-23T04:30:01.379Z,80
2019-02-23T04:31:01.432Z,79
2019-02-23T04:32:01.416Z,79
2019-02-23T04:33:01.435Z,79
2019-02-23T04:34:01.475Z,79
2019-02-23T04:35:01.461Z,79
2019-02-23T04:36:01.481Z,79
2019-02-23T04:37:01.479Z,79
2019-02-23T04:38:01.533Z,78
2019-02-23T04:39:01.581Z,78
2019-02-23T04:40:01.527Z,78
2019-02-23T04:41:01.535Z,79
2019-02-23T04:42:01.571Z,79
2019-02-23T04:43:01.552Z,78
2019-02-23T04:44:01.564Z,78
2019-02-23T04:45:01.647Z,78
2019-02-23T04:46:01.590Z,78
2019-02-23T04:47:01.585Z,77
2019-02-23T04:48:01.577Z,77
2019-02-23T04:49:01.617Z,77
2019-02-23T04:50:01.619Z,78
2019-02-23T04:51:13.407Z,78
2019-02-23T04:52:01.699Z,78
2019-02-23T04:53:01.770Z,78
2019-02-23T04:54:01.803Z,78
2019-02-23T04:55:01.858Z,78
2019-02-23T04:56:01.878Z,78
2019-02-23T04:57:01.957Z,78
2019-02-23T04:58:01.981Z,78
2019-02-23T04:59:02.040Z,78
2019-02-23T05:00:02.132Z,78
2019-02-23T05:01:02.157Z,78
2019-02-23T05:02:02.215Z,78
2019-02-23T05:03:02.278Z,78
2019-02-23T05:04:02.385Z,78
2019-02-23T05:05:02.444Z,78
2019-02-23T05:06:02.388Z,78
2019-02-23T05:07:02.459Z,78
2019-02-23T05:08:02.747Z,78
2019-02-23T05:09:02.530Z,78
2019-02-23T05:10:02.564Z,78
2019-02-23T05:11:02.619Z,78
2019-02-23T05:12:02.619Z,78
2019-02-23T05:13:02.761Z,78
2019-02-23T05:14:02.695Z,78
2019-02-23T05:15:03.794Z,78
2019-02-23T05:16:02.915Z,79
2019-02-23T05:17:02.861Z,79
2019-02-23T05:18:02.910Z,79
2019-02-23T05:19:02.989Z,79
2019-02-23T05:20:02.996Z,79
2019-02-23T05:21:03.050Z,79
2019-02-23T05:22:03.110Z,79
2019-02-23T05:23:03.136Z,79
2019-02-23T05:24:03.153Z,79
2019-02-23T05:25:03.198Z,79
2019-02-23T05:26:03.296Z,79
2019-02-23T05:27:03.304Z,79
2019-02-23T05:28:03.451Z,79
2019-02-23T05:29:03.399Z,79
2019-02-23T05:30:03.491Z,79
2019-02-23T05:31:03.530Z,79
2019-02-23T05:32:03.572Z,79
2019-02-23T05:33:03.615Z,80
2019-02-23T05:34:03.670Z,80
2019-02-23T05:35:03.733Z,80
2019-02-23T05:36:03.780Z,80
2019-02-23T05:37:03.823Z,80
2019-02-23T05:38:03.876Z,81
2019-02-23T05:39:03.919Z,81
2019-02-23T05:40:03.951Z,81
2019-02-23T05:41:03.984Z,81
2019-02-23T05:42:04.032Z,81
2019-02-23T05:43:04.137Z,81
2019-02-23T05:44:04.146Z,81
2019-02-23T05:45:04.197Z,81
2019-02-23T05:46:04.227Z,81
2019-02-23T05:47:04.227Z,81
2019-02-23T05:48:04.245Z,81
2019-02-23T05:49:04.319Z,80
2019-02-23T05:50:04.436Z,80
2019-02-23T05:51:04.391Z,80
2019-02-23T05:52:04.458Z,80
2019-02-23T05:53:04.503Z,79
2019-02-23T05:54:04.562Z,79
2019-02-23T05:55:04.594Z,79
2019-02-23T05:56:04.639Z,80
2019-02-23T05:57:04.739Z,80
2019-02-23T05:58:04.730Z,80
2019-02-23T05:59:04.728Z,80
2019-02-23T06:00:04.787Z,80
2019-02-23T06:01:04.815Z,80
2019-02-23T06:02:04.846Z,79
2019-02-23T06:03:04.894Z,79
2019-02-23T06:04:04.933Z,78
2019-02-23T06:05:04.934Z,78
2019-02-23T06:06:04.958Z,78
2019-02-23T06:07:04.965Z,78
2019-02-23T06:08:05.023Z,78
2019-02-23T06:09:05.053Z,78
2019-02-23T06:10:05.083Z,78
2019-02-23T06:11:05.088Z,78
2019-02-23T06:12:05.108Z,78
2019-02-23T06:13:05.141Z,78
2019-02-23T06:14:05.180Z,78
2019-02-23T06:15:05.191Z,78
2019-02-23T06:16:05.261Z,78
2019-02-23T06:17:05.258Z,78
2019-02-23T06:18:05.285Z,78
2019-02-23T06:19:05.259Z,78
2019-02-23T06:20:05.294Z,78
2019-02-23T06:21:05.469Z,78
2019-02-23T06:22:05.336Z,78
2019-02-23T06:23:05.380Z,79
2019-02-23T06:24:05.345Z,79
2019-02-23T06:25:05.357Z,79
2019-02-23T06:26:05.440Z,79
2019-02-23T06:27:05.405Z,79
2019-02-23T06:28:05.438Z,80
2019-02-23T06:29:05.414Z,79
2019-02-23T06:30:05.450Z,79
2019-02-23T06:31:05.467Z,78
2019-02-23T06:32:05.483Z,79
2019-02-23T06:33:05.446Z,80
2019-02-23T06:34:15.384Z,80
2019-02-23T06:35:05.489Z,80
2019-02-23T06:36:05.687Z,80
2019-02-23T06:37:05.492Z,80
2019-02-23T06:38:05.474Z,80
2019-02-23T06:39:06.021Z,80
2019-02-23T06:40:05.643Z,80
2019-02-23T06:41:05.915Z,80
2019-02-23T06:42:05.765Z,80
2019-02-23T06:43:05.818Z,81
2019-02-23T06:44:05.860Z,81
2019-02-23T06:45:06.030Z,81
2019-02-23T06:46:05.996Z,81
2019-02-23T06:47:06.054Z,81
2019-02-23T06:48:06.120Z,81
2019-02-23T06:49:06.208Z,81
2019-02-23T06:50:06.212Z,81
2019-02-23T06:51:06.288Z,81
2019-02-23T06:52:06.304Z,81
2019-02-23T06:53:06.346Z,81
2019-02-23T06:54:06.380Z,81
2019-02-23T06:55:06.429Z,81
2019-02-23T06:56:06.483Z,81
2019-02-23T06:57:06.553Z,81
2019-02-23T06:58:06.607Z,81
2019-02-23T06:59:06.672Z,80
2019-02-23T07:00:06.747Z,80
2019-02-23T07:01:06.807Z,81
2019-02-23T07:02:06.863Z,81
2019-02-23T07:03:06.922Z,80
2019-02-23T07:04:08.031Z,81
2019-02-23T07:05:07.032Z,81
2019-02-23T07:06:07.197Z,82
2019-02-23T07:07:07.182Z,82
2019-02-23T07:08:07.171Z,82
2019-02-23T07:09:07.248Z,82
2019-02-23T07:10:07.303Z,82
2019-02-23T07:11:07.415Z,82
2019-02-23T07:12:07.431Z,82
2019-02-23T07:13:07.473Z,82
2019-02-23T07:14:07.490Z,82
2019-02-23T07:15:07.651Z,82
2019-02-23T07:16:07.615Z,82
2019-02-23T07:17:07.643Z,82
2019-02-23T07:18:07.700Z,82
2019-02-23T07:19:07.846Z,82
2019-02-23T07:20:07.781Z,82
2019-02-23T07:21:07.835Z,82
2019-02-23T07:22:14.967Z,82
2019-02-23T07:23:07.858Z,82
2019-02-23T07:24:07.928Z,82
2019-02-23T07:25:07.953Z,82
2019-02-23T07:26:07.984Z,83
2019-02-23T07:27:08.023Z,83
2019-02-23T07:28:08.104Z,83
2019-02-23T07:29:08.128Z,82
2019-02-23T07:30:08.109Z,82
2019-02-23T07:31:08.159Z,82
2019-02-23T07:32:08.187Z,82
2019-02-23T07:33:10.794Z,82
2019-02-23T07:34:08.298Z,82
2019-02-23T07:35:08.336Z,81
2019-02-23T07:36:08.361Z,81
2019-02-23T07:37:08.435Z,81
2019-02-23T07:38:08.440Z,81
2019-02-23T07:39:08.452Z,81
2019-02-23T07:40:08.497Z,81
2019-02-23T07:41:08.492Z,80
2019-02-23T07:42:09.559Z,80
2019-02-23T07:43:08.599Z,80
2019-02-23T07:44:08.619Z,79
2019-02-23T07:45:08.694Z,78
2019-02-23T07:46:08.684Z,78
2019-02-23T07:47:08.739Z,78
2019-02-23T07:48:08.734Z,78
2019-02-23T07:49:08.795Z,78
2019-02-23T07:50:08.802Z,78
2019-02-23T07:51:08.811Z,77
2019-02-23T07:52:08.842Z,77
2019-02-23T07:53:08.859Z,77
2019-02-23T07:54:08.894Z,77
2019-02-23T07:55:08.911Z,78
2019-02-23T07:56:08.928Z,77
2019-02-23T07:57:08.996Z,77
2019-02-23T07:58:08.988Z,77
2019-02-23T07:59:09.039Z,75
2019-02-23T08:00:09.056Z,73
2019-02-23T08:01:09.070Z,72
2019-02-23T08:02:09.119Z,72
2019-02-23T08:03:09.174Z,71
2019-02-23T08:04:09.185Z,69
2019-02-23T08:05:09.170Z,68
2019-02-23T08:06:09.183Z,67
2019-02-23T08:07:09.221Z,66
2019-02-23T08:08:09.257Z,66
2019-02-23T08:09:09.376Z,66
2019-02-23T08:10:09.272Z,66
2019-02-23T08:11:09.278Z,66
2019-02-23T08:12:09.308Z,68
2019-02-23T08:13:09.314Z,69
2019-02-23T08:14:09.354Z,69
2019-02-23T08:15:09.331Z,70
2019-02-23T08:16:09.342Z,71
2019-02-23T08:17:09.332Z,70
2019-02-23T08:18:09.368Z,70
2019-02-23T08:19:09.359Z,70
2019-02-23T08:20:09.375Z,70
2019-02-23T08:21:09.425Z,69
2019-02-23T08:22:09.366Z,69
2019-02-23T08:23:09.416Z,69
2019-02-23T08:24:09.398Z,69
2019-02-23T08:25:09.443Z,69
2019-02-23T08:26:09.441Z,69
2019-02-23T08:27:09.780Z,69
2019-02-23T08:28:09.570Z,69
2019-02-23T08:29:09.596Z,69
2019-02-23T08:30:09.625Z,69
2019-02-23T08:31:09.684Z,68
2019-02-23T08:32:09.729Z,68
2019-02-23T08:33:09.766Z,67
2019-02-23T08:34:09.812Z,66
2019-02-23T08:35:09.924Z,67
2019-02-23T08:36:09.884Z,67
2019-02-23T08:37:09.942Z,65
2019-02-23T08:38:10.036Z,65
2019-02-23T08:39:10.052Z,65
2019-02-23T08:40:10.144Z,63
2019-02-23T08:41:10.187Z,62
2019-02-23T08:42:10.219Z,63
2019-02-23T08:43:10.262Z,65
2019-02-23T08:44:10.335Z,64
2019-02-23T08:45:10.433Z,65
2019-02-23T08:46:10.463Z,64
2019-02-23T08:47:10.499Z,63
2019-02-23T08:48:10.554Z,63
2019-02-23T08:49:10.611Z,63
2019-02-23T08:50:10.608Z,62
2019-02-23T08:51:10.789Z,61
2019-02-23T08:52:10.716Z,59
2019-02-23T08:53:10.792Z,59
2019-02-23T08:54:10.838Z,60
2019-02-23T08:55:10.901Z,59
2019-02-23T08:56:10.978Z,60
2019-02-23T08:57:11.014Z,60
2019-02-23T08:58:11.009Z,59
2019-02-23T08:59:11.103Z,58
2019-02-23T09:00:11.120Z,57
2019-02-23T09:01:11.179Z,58
2019-02-23T09:02:11.248Z,58
2019-02-23T09:03:11.318Z,56
2019-02-23T09:04:11.348Z,57
2019-02-23T09:05:11.421Z,57
2019-02-23T09:06:11.493Z,55
2019-02-23T09:07:11.493Z,54
2019-02-23T09:08:11.531Z,53
2019-02-23T09:09:11.554Z,52
2019-02-23T09:10:11.622Z,53
2019-02-23T09:11:11.633Z,53
2019-02-23T09:12:11.712Z,52
2019-02-23T09:13:11.815Z,52
2019-02-23T09:14:11.796Z,52
2019-02-23T09:15:11.803Z,52
2019-02-23T09:16:11.829Z,53
2019-02-23T09:17:11.891Z,52
2019-02-23T09:18:11.945Z,53
2019-02-23T09:19:11.978Z,51
2019-02-23T09:20:12.091Z,51
2019-02-23T09:21:12.100Z,51
2019-02-23T09:22:12.140Z,51
2019-02-23T09:23:12.150Z,51
2019-02-23T09:24:12.155Z,51
2019-02-23T09:25:12.224Z,51
2019-02-23T09:26:12.305Z,52
2019-02-23T09:27:12.305Z,51
2019-02-23T09:28:12.355Z,51
2019-02-23T09:29:12.380Z,51
2019-02-23T09:30:12.544Z,51
2019-02-23T09:31:12.474Z,50
2019-02-23T09:32:12.498Z,52
2019-02-23T09:33:12.500Z,51
2019-02-23T09:34:12.576Z,49
2019-02-23T09:35:12.689Z,49
2019-02-23T09:36:12.593Z,48
2019-02-23T09:37:12.643Z,49
2019-02-23T09:38:12.680Z,47
2019-02-23T09:39:12.730Z,48
2019-02-23T09:40:12.740Z,48
2019-02-23T09:41:12.758Z,47
2019-02-23T09:42:12.786Z,48
2019-02-23T09:43:12.813Z,48
2019-02-23T09:44:12.816Z,46
2019-02-23T09:45:12.941Z,47
2019-02-23T09:46:12.910Z,46
2019-02-23T09:47:12.907Z,47
2019-02-23T09:48:12.924Z,46
2019-02-23T09:49:12.958Z,46
2019-02-23T09:50:12.960Z,47
2019-02-23T09:51:13.008Z,49
2019-02-23T09:52:13.522Z,50
2019-02-23T09:53:13.036Z,48
2019-02-23T09:54:13.068Z,47
2019-02-23T09:55:13.078Z,47
2019-02-23T09:56:13.090Z,48
2019-02-23T09:57:13.185Z,50
2019-02-23T09:58:13.163Z,47
2019-02-23T09:59:13.172Z,46
2019-02-23T10:00:13.175Z,47
2019-02-23T10:01:13.207Z,47
2019-02-23T10:02:13.211Z,47
2019-02-23T10:03:13.257Z,44
2019-02-23T10:04:13.257Z,47
2019-02-23T10:05:13.267Z,48
2019-02-23T10:06:13.334Z,48
2019-02-23T10:07:13.256Z,47
2019-02-23T10:08:13.276Z,47
2019-02-23T10:09:13.317Z,47
2019-02-23T10:10:14.309Z,46
2019-02-23T10:11:13.354Z,46
2019-02-23T10:12:13.321Z,45
2019-02-23T10:13:13.314Z,43
2019-02-23T10:14:13.323Z,43
2019-02-23T10:15:13.375Z,44
2019-02-23T10:16:13.481Z,45
2019-02-23T10:17:13.474Z,45
2019-02-23T10:18:13.580Z,45
2019-02-23T10:19:13.620Z,45
2019-02-23T10:20:13.627Z,46
2019-02-23T10:21:13.873Z,41
2019-02-23T10:22:13.812Z,42
2019-02-23T10:23:21.430Z,41
2019-02-23T10:24:14.916Z,41
2019-02-23T10:25:13.971Z,42
2019-02-23T10:26:14.022Z,42
2019-02-23T10:27:14.100Z,42
2019-02-23T10:28:14.144Z,42
2019-02-23T10:29:14.214Z,40
2019-02-23T10:30:14.312Z,38
2019-02-23T10:31:14.325Z,39
2019-02-23T10:32:14.437Z,39
2019-02-23T10:33:14.570Z,38
2019-02-23T10:34:14.537Z,39
2019-02-23T10:35:14.556Z,40
2019-02-23T10:36:14.605Z,39
2019-02-23T10:37:14.661Z,38
2019-02-23T10:38:14.686Z,38
2019-02-23T10:39:14.702Z,39
2019-02-23T10:40:14.717Z,40
2019-02-23T10:41:14.801Z,40
2019-02-23T10:42:14.810Z,41
2019-02-23T10:43:14.851Z,41
2019-02-23T10:44:14.862Z,42
2019-02-23T10:45:14.904Z,43
2019-02-23T10:46:14.871Z,42
2019-02-23T10:47:14.912Z,43
2019-02-23T10:48:15.002Z,43
2019-02-23T10:49:14.999Z,44
2019-02-23T10:50:15.050Z,43
2019-02-23T10:51:15.111Z,43
2019-02-23T10:52:15.148Z,43
2019-02-23T10:53:15.211Z,43
2019-02-23T10:54:15.211Z,42
2019-02-23T10:55:15.238Z,43
2019-02-23T10:56:15.268Z,42
2019-02-23T10:57:15.287Z,41
2019-02-23T10:58:15.368Z,41
2019-02-23T10:59:15.368Z,42
2019-02-23T11:00:15.429Z,42
2019-02-23T11:01:17.676Z,41
2019-02-23T11:02:15.508Z,40
2019-02-23T11:03:15.584Z,41
2019-02-23T11:04:15.632Z,41
2019-02-23T11:05:15.616Z,41
2019-02-23T11:06:15.652Z,41
2019-02-23T11:07:15.715Z,40
2019-02-23T11:08:15.729Z,40
2019-02-23T11:09:15.765Z,38
2019-02-23T11:10:15.806Z,36
2019-02-23T11:11:15.864Z,36
2019-02-23T11:12:16.183Z,36
2019-02-23T11:13:15.910Z,36
2019-02-23T11:14:15.971Z,35
2019-02-23T11:15:16.004Z,35
2019-02-23T11:16:16.025Z,35
2019-02-23T11:17:16.036Z,35
2019-02-23T11:18:16.091Z,35
2019-02-23T11:19:16.122Z,35
2019-02-23T11:20:16.140Z,35
2019-02-23T11:21:16.176Z,36
2019-02-23T11:22:16.205Z,36
2019-02-23T11:23:16.249Z,36
2019-02-23T11:24:18.304Z,35
2019-02-23T11:25:16.314Z,35
2019-02-23T11:26:16.464Z,34
2019-02-23T11:27:16.376Z,35
2019-02-23T11:28:16.446Z,34
2019-02-23T11:29:16.449Z,33
2019-02-23T11:30:16.469Z,34
2019-02-23T11:31:16.615Z,35
2019-02-23T11:32:16.548Z,35
2019-02-23T11:33:16.657Z,34
2019-02-23T11:34:16.552Z,34
2019-02-23T11:35:17.546Z,34
2019-02-23T11:36:16.579Z,34
2019-02-23T11:37:16.602Z,34
2019-02-23T11:38:16.605Z,33
2019-02-23T11:39:16.626Z,33
2019-02-23T11:40:16.712Z,34
2019-02-23T11:41:16.695Z,35
2019-02-23T11:42:16.713Z,34
2019-02-23T11:43:16.719Z,33
2019-02-23T11:44:16.848Z,33
2019-02-23T11:45:16.754Z,33
2019-02-23T11:46:16.776Z,36
2019-02-23T11:47:16.766Z,39
2019-02-23T11:48:16.804Z,41
2019-02-23T11:49:16.802Z,40
2019-02-23T11:50:16.813Z,41
2019-02-23T11:51:16.859Z,41
2019-02-23T11:52:16.815Z,41
2019-02-23T11:53:16.922Z,41
2019-02-23T11:54:16.883Z,40
2019-02-23T11:55:16.885Z,39
2019-02-23T11:56:16.865Z,40
2019-02-23T11:57:17.125Z,41
2019-02-23T11:58:16.935Z,42
2019-02-23T11:59:16.921Z,43
2019-02-23T12:00:16.966Z,41
2019-02-23T12:01:16.927Z,41
2019-02-23T12:02:16.912Z,40
2019-02-23T12:03:16.963Z,42
2019-02-23T12:04:17.079Z,41
2019-02-23T12:05:17.109Z,37
2019-02-23T12:06:17.182Z,36
2019-02-23T12:07:17.240Z,33
2019-02-23T12:08:17.305Z,33
2019-02-23T12:09:17.309Z,34
2019-02-23T12:10:17.364Z,36
2019-02-23T12:11:17.391Z,38
2019-02-23T12:12:17.476Z,38
2019-02-23T12:13:17.439Z,39
2019-02-23T12:14:17.506Z,39
2019-02-23T12:15:17.583Z,39
2019-02-23T12:16:17.598Z,39
2019-02-23T12:17:17.679Z,38
2019-02-23T12:18:17.699Z,37
2019-02-23T12:19:17.763Z,37
2019-02-23T12:20:17.791Z,38
2019-02-23T12:21:17.859Z,37
2019-02-23T12:22:17.910Z,38
2019-02-23T12:23:17.926Z,37
2019-02-23T12:24:17.931Z,38
2019-02-23T12:25:18.002Z,38
2019-02-23T12:26:18.042Z,37
2019-02-23T12:27:18.060Z,38
2019-02-23T12:28:18.154Z,38
2019-02-23T12:29:18.139Z,37
2019-02-23T12:30:18.218Z,37
2019-02-23T12:31:18.228Z,36
2019-02-23T12:32:18.229Z,36
2019-02-23T12:33:18.319Z,37
2019-02-23T12:34:18.343Z,38
2019-02-23T12:35:18.333Z,36
2019-02-23T12:36:18.411Z,37
2019-02-23T12:37:18.424Z,39
2019-02-23T12:38:18.475Z,36
2019-02-23T12:39:18.513Z,36
2019-02-23T12:40:18.511Z,36
2019-02-23T12:41:18.544Z,36
2019-02-23T12:42:18.601Z,37
2019-02-23T12:43:18.646Z,36
2019-02-23T12:44:18.690Z,36
2019-02-23T12:45:18.729Z,36
2019-02-23T12:46:18.806Z,35
2019-02-23T12:47:18.845Z,34
2019-02-23T12:48:18.970Z,37
2019-02-23T12:49:18.841Z,37
2019-02-23T12:50:18.913Z,38
2019-02-23T12:51:18.912Z,35
2019-02-23T12:52:18.918Z,33
2019-02-23T12:53:18.945Z,33
2019-02-23T12:54:18.954Z,33
2019-02-23T12:55:19.024Z,31
2019-02-23T12:56:19.071Z,31
2019-02-23T12:57:19.125Z,32
2019-02-23T12:58:19.097Z,32
2019-02-23T12:59:19.143Z,32
2019-02-23T13:00:19.188Z,31
2019-02-23T13:01:19.207Z,34
2019-02-23T13:02:19.239Z,34
2019-02-23T13:03:19.314Z,32
2019-02-23T13:04:19.759Z,34
2019-02-23T13:05:19.338Z,35
2019-02-23T13:06:35.262Z,33
2019-02-23T13:07:19.386Z,33
2019-02-23T13:08:19.418Z,32
2019-02-23T13:09:19.445Z,33
2019-02-23T13:10:19.498Z,31
2019-02-23T13:11:19.511Z,33
2019-02-23T13:12:19.530Z,33
2019-02-23T13:13:19.545Z,32
2019-02-23T13:14:19.562Z,30
2019-02-23T13:15:19.578Z,30
2019-02-23T13:16:19.611Z,32
2019-02-23T13:17:19.624Z,35
2019-02-23T13:18:19.673Z,34
2019-02-23T13:19:19.642Z,34
2019-02-23T13:20:19.720Z,32
2019-02-23T13:21:19.678Z,31
2019-02-23T13:22:19.731Z,31
2019-02-23T13:23:19.765Z,30
2019-02-23T13:24:27.661Z,28
2019-02-23T13:25:19.747Z,29
2019-02-23T13:26:19.869Z,29
2019-02-23T13:27:19.788Z,29
2019-02-23T13:28:19.778Z,30
2019-02-23T13:29:19.786Z,30
2019-02-23T13:30:19.788Z,30
2019-02-23T13:31:19.825Z,29
2019-02-23T13:32:19.856Z,29
2019-02-23T13:33:19.835Z,28
2019-02-23T13:34:19.889Z,29
2019-02-23T13:35:19.996Z,29
2019-02-23T13:36:19.850Z,28
2019-02-23T13:37:19.819Z,28
2019-02-23T13:38:19.898Z,29
2019-02-23T13:39:19.972Z,30
2019-02-23T13:40:20.134Z,29
2019-02-23T13:41:20.035Z,29
2019-02-23T13:42:20.092Z,31
2019-02-23T13:43:20.139Z,31
2019-02-23T13:44:22.525Z,30
2019-02-23T13:45:20.210Z,29
2019-02-23T13:46:20.302Z,29
2019-02-23T13:47:20.274Z,30
2019-02-23T13:48:21.192Z,29
2019-02-23T13:49:20.414Z,30
2019-02-23T13:50:20.444Z,30
2019-02-23T13:51:20.439Z,30
2019-02-23T13:52:20.470Z,31
2019-02-23T13:53:20.493Z,30
2019-02-23T13:54:20.572Z,29
2019-02-23T13:55:20.635Z,30
2019-02-23T13:56:20.633Z,29
2019-02-23T13:57:20.667Z,32
2019-02-23T13:58:20.743Z,32
2019-02-23T13:59:20.801Z,31
2019-02-23T14:00:20.843Z,31
2019-02-23T14:01:20.914Z,30
2019-02-23T14:02:20.989Z,29
2019-02-23T14:03:20.997Z,29
2019-02-23T14:04:23.796Z,30
2019-02-23T14:05:21.082Z,30
2019-02-23T14:06:21.186Z,30
2019-02-23T14:07:21.191Z,31
2019-02-23T14:08:21.221Z,31
2019-02-23T14:09:21.304Z,30
2019-02-23T14:10:21.329Z,30
2019-02-23T14:11:21.388Z,30
2019-02-23T14:12:21.411Z,31
2019-02-23T14:13:21.416Z,32
2019-02-23T14:14:21.478Z,32
2019-02-23T14:15:21.583Z,32
2019-02-23T14:16:21.657Z,31